Time;durP1;ratioP1;P1;durP2;ratioP2;P2;SDS_P1;SDS_P2;PMS_P1;PMS_P2;Temp;Humidity;BMP_temperature;BMP_pressure;BME280_temperature;BME280_humidity;BME280_pressure;Samples;Min_cycle;Max_cycle;Signal;HPM_P1;HPM_P2
2021/07/24 00:01:13;;;;;;;21.48;12.35;;;17.20;99.90;;;;;;5133290;27;20027;-81
2021/07/24 00:03:39;;;;;;;18.20;11.95;;;17.10;99.90;;;;;;5133424;27;20019;-81
2021/07/24 00:06:06;;;;;;;17.38;12.73;;;17.10;99.90;;;;;;5133226;27;20015;-82
2021/07/24 00:08:32;;;;;;;20.63;11.95;;;17.10;99.90;;;;;;5134474;27;20564;-81
2021/07/24 00:11:02;;;;;;;15.68;10.95;;;17.00;99.90;;;;;;5133237;27;20051;-81
2021/07/24 00:13:27;;;;;;;16.90;11.20;;;17.00;99.90;;;;;;5133356;27;20192;-81
2021/07/24 00:15:53;;;;;;;15.63;10.90;;;17.00;99.90;;;;;;5134713;27;20043;-81
2021/07/24 00:18:18;;;;;;;17.05;11.75;;;16.90;99.90;;;;;;5133037;27;20380;-81
2021/07/24 00:20:44;;;;;;;15.60;12.35;;;16.90;99.90;;;;;;5132907;27;20041;-81
2021/07/24 00:23:11;;;;;;;19.48;12.65;;;16.90;99.90;;;;;;5131670;27;20035;-80
2021/07/24 00:25:37;;;;;;;17.65;12.70;;;16.80;99.90;;;;;;5132836;27;20110;-81
2021/07/24 00:28:03;;;;;;;17.48;12.52;;;16.80;99.90;;;;;;5132940;27;20427;-80
2021/07/24 00:30:29;;;;;;;14.68;10.80;;;16.80;99.90;;;;;;5134030;27;20023;-80
2021/07/24 00:32:54;;;;;;;18.33;11.88;;;16.70;99.90;;;;;;5132828;27;20122;-81
2021/07/24 00:35:20;;;;;;;16.25;11.88;;;16.70;99.90;;;;;;5132787;27;20088;-81
2021/07/24 00:37:46;;;;;;;17.75;11.95;;;16.70;99.90;;;;;;5132750;27;20446;-81
2021/07/24 00:40:15;;;;;;;18.15;12.25;;;16.70;99.90;;;;;;5134203;27;20054;-81
2021/07/24 00:42:44;;;;;;;19.95;12.57;;;16.70;99.90;;;;;;5133938;27;20515;-81
2021/07/24 00:45:14;;;;;;;17.30;11.35;;;16.70;99.90;;;;;;5133901;27;20020;-80
2021/07/24 00:47:42;;;;;;;19.45;13.00;;;16.80;99.90;;;;;;5115607;28;20433;-81
2021/07/24 00:50:12;;;;;;;15.23;11.30;;;16.70;99.90;;;;;;5115806;28;20072;-80
2021/07/24 00:52:41;;;;;;;20.08;11.30;;;16.70;99.90;;;;;;5115270;28;20476;-79
2021/07/24 00:55:07;;;;;;;21.45;11.57;;;16.70;99.90;;;;;;5125503;28;20034;-80
2021/07/24 00:57:35;;;;;;;15.43;11.02;;;16.70;99.90;;;;;;5115325;28;20493;-80
2021/07/24 01:00:01;;;;;;;17.05;10.98;;;16.60;99.90;;;;;;5133674;28;20068;-80
2021/07/24 01:02:27;;;;;;;16.50;12.18;;;16.60;99.90;;;;;;5133803;28;20020;-81
2021/07/24 01:04:52;;;;;;;17.05;11.77;;;16.60;99.90;;;;;;5115296;28;20019;-81
2021/07/24 01:07:18;;;;;;;16.02;13.25;;;16.50;99.90;;;;;;5133400;28;20055;-80
2021/07/24 01:09:44;;;;;;;17.42;12.30;;;16.60;99.90;;;;;;5115093;28;20496;-81
2021/07/24 01:12:10;;;;;;;18.15;12.52;;;16.50;99.90;;;;;;5115329;28;20030;-82
2021/07/24 01:14:36;;;;;;;19.73;12.10;;;16.50;99.90;;;;;;5115053;28;20027;-82
2021/07/24 01:17:02;;;;;;;17.02;11.90;;;16.50;99.90;;;;;;5115575;28;20156;-82
2021/07/24 01:19:28;;;;;;;17.10;13.00;;;16.50;99.90;;;;;;5115060;28;20535;-81
2021/07/24 01:21:55;;;;;;;15.50;11.73;;;16.50;99.90;;;;;;5117531;27;20038;-82
2021/07/24 01:24:21;;;;;;;18.38;12.95;;;16.50;99.90;;;;;;5137264;27;20024;-81
2021/07/24 01:26:47;;;;;;;15.52;11.52;;;16.50;99.90;;;;;;5119533;27;20064;-82
2021/07/24 01:29:18;;;;;;;19.33;13.70;;;16.50;99.90;;;;;;5137259;27;20464;-82
2021/07/24 01:31:44;;;;;;;20.02;12.95;;;16.50;99.90;;;;;;5118781;27;20034;-82
2021/07/24 01:34:10;;;;;;;16.52;13.60;;;16.50;99.90;;;;;;5119018;27;20024;-82
2021/07/24 01:36:37;;;;;;;18.77;12.63;;;16.50;99.90;;;;;;5119244;27;20027;-83
2021/07/24 01:39:03;;;;;;;18.80;12.50;;;16.50;99.90;;;;;;5119413;27;20058;-81
2021/07/24 01:41:29;;;;;;;18.58;12.02;;;16.40;99.90;;;;;;5137177;27;20027;-82
2021/07/24 01:43:54;;;;;;;21.70;13.50;;;16.40;99.90;;;;;;5137609;27;20023;-81
2021/07/24 01:46:20;;;;;;;16.38;12.00;;;16.30;99.90;;;;;;5137330;27;20106;-81
2021/07/24 01:48:52;;;;;;;21.65;12.75;;;16.40;99.90;;;;;;5119017;27;20031;-81
2021/07/24 01:54:19;;;;;;;21.33;12.55;;;16.30;99.90;;;;;;5136900;27;19915;-81
2021/07/24 01:56:45;;;;;;;17.58;12.43;;;16.30;99.90;;;;;;5137120;27;20019;-81
2021/07/24 01:59:11;;;;;;;18.60;12.82;;;16.30;99.90;;;;;;5137065;27;20053;-81
2021/07/24 02:01:38;;;;;;;16.70;11.48;;;16.30;99.90;;;;;;5136830;27;20042;-81
2021/07/24 02:04:13;;;;;;;14.00;10.70;;;16.20;99.90;;;;;;5118859;27;20088;-81
2021/07/24 02:06:41;;;;;;;17.00;13.23;;;16.20;99.90;;;;;;5136832;27;20525;-82
2021/07/24 02:09:07;;;;;;;19.20;11.48;;;16.10;99.90;;;;;;5118460;27;20022;-82
2021/07/24 02:11:33;;;;;;;17.98;10.82;;;16.10;99.90;;;;;;5118385;27;20106;-83
2021/07/24 02:13:58;;;;;;;14.20;11.00;;;16.20;99.90;;;;;;5118238;27;20046;-82
2021/07/24 02:16:25;;;;;;;15.73;11.13;;;16.10;99.90;;;;;;5118314;27;20056;-82
2021/07/24 02:18:51;;;;;;;17.33;11.07;;;16.00;99.90;;;;;;5118137;27;20030;-81
2021/07/24 02:21:17;;;;;;;16.15;10.55;;;16.00;99.90;;;;;;5136253;27;20039;-82
2021/07/24 02:23:42;;;;;;;18.98;12.00;;;16.00;99.90;;;;;;5117946;27;20054;-81
2021/07/24 02:26:11;;;;;;;18.98;12.40;;;15.90;99.90;;;;;;5118218;27;20060;-81
2021/07/24 02:28:37;;;;;;;16.27;11.55;;;15.90;99.90;;;;;;5117871;27;20403;-81
2021/07/24 02:31:05;;;;;;;22.52;12.82;;;15.90;99.90;;;;;;5118126;27;20020;-81
2021/07/24 02:33:31;;;;;;;16.83;11.95;;;15.80;99.90;;;;;;5117033;27;20482;-81
2021/07/24 02:35:56;;;;;;;19.58;12.13;;;15.80;99.90;;;;;;5118249;27;20366;-82
2021/07/24 02:38:22;;;;;;;19.45;12.05;;;15.70;99.90;;;;;;5118157;27;20031;-81
2021/07/24 02:40:48;;;;;;;16.98;11.90;;;15.70;99.90;;;;;;5117822;27;20035;-82
2021/07/24 02:43:14;;;;;;;20.13;12.32;;;15.70;99.90;;;;;;5136235;27;20020;-81
2021/07/24 02:45:39;;;;;;;17.83;11.38;;;15.60;99.90;;;;;;5136087;27;20096;-82
2021/07/24 02:48:05;;;;;;;16.67;11.57;;;15.60;99.90;;;;;;5117555;27;20072;-81
2021/07/24 02:50:31;;;;;;;18.20;11.75;;;15.60;99.90;;;;;;5136291;27;20027;-82
2021/07/24 02:52:56;;;;;;;17.40;11.30;;;15.50;99.90;;;;;;5117035;27;20056;-81
2021/07/24 02:55:22;;;;;;;16.85;11.77;;;15.50;99.90;;;;;;5117844;27;20015;-82
2021/07/24 02:57:48;;;;;;;20.85;11.70;;;15.50;99.90;;;;;;5117340;27;20066;-81
2021/07/24 03:00:14;;;;;;;16.83;11.55;;;15.50;99.90;;;;;;5117397;27;20026;-81
2021/07/24 03:02:39;;;;;;;16.42;12.45;;;15.40;99.90;;;;;;5117259;27;20030;-82
2021/07/24 03:05:05;;;;;;;15.45;12.43;;;15.40;99.90;;;;;;5135817;27;20022;-81
2021/07/24 03:07:31;;;;;;;17.15;12.57;;;15.40;99.90;;;;;;5117262;27;20038;-81
2021/07/24 03:09:56;;;;;;;22.38;13.55;;;15.40;99.90;;;;;;5135610;27;20388;-81
2021/07/24 03:12:22;;;;;;;15.82;12.85;;;15.40;99.90;;;;;;5135623;27;20019;-83
2021/07/24 03:14:48;;;;;;;17.73;11.73;;;15.40;99.90;;;;;;5117093;27;20436;-81
2021/07/24 03:17:14;;;;;;;17.52;11.57;;;15.40;99.90;;;;;;5135620;27;20035;-82
2021/07/24 03:19:39;;;;;;;23.13;14.25;;;15.30;99.90;;;;;;5135370;27;20023;-80
2021/07/24 03:22:05;;;;;;;21.88;13.43;;;15.30;99.90;;;;;;5129491;27;20034;-80
2021/07/24 03:24:30;;;;;;;18.52;12.38;;;15.30;99.90;;;;;;5117234;27;20026;-80
2021/07/24 03:26:56;;;;;;;18.58;13.75;;;15.40;99.90;;;;;;5135388;27;20027;-80
2021/07/24 03:29:23;;;;;;;21.27;13.77;;;15.40;99.90;;;;;;5135237;27;20038;-81
2021/07/24 03:31:48;;;;;;;15.90;12.07;;;15.40;99.90;;;;;;5116829;27;20057;-80
2021/07/24 03:34:14;;;;;;;17.65;12.15;;;15.40;99.90;;;;;;5135613;27;20031;-80
2021/07/24 03:36:40;;;;;;;18.45;11.57;;;15.40;99.90;;;;;;5135078;27;20019;-82
2021/07/24 03:39:05;;;;;;;16.10;12.80;;;15.40;99.90;;;;;;5116738;27;20027;-80
2021/07/24 03:41:35;;;;;;;15.60;12.63;;;15.40;99.90;;;;;;5116531;27;20034;-81
2021/07/24 03:44:01;;;;;;;19.38;13.23;;;15.50;99.90;;;;;;5134821;27;20087;-81
2021/07/24 03:46:27;;;;;;;17.58;13.02;;;15.50;99.90;;;;;;5116355;27;20023;-81
2021/07/24 03:48:54;;;;;;;15.40;11.60;;;15.50;99.90;;;;;;5116505;27;20046;-80
2021/07/24 03:51:20;;;;;;;17.17;12.80;;;15.50;99.90;;;;;;5116219;27;20023;-80
2021/07/24 03:53:45;;;;;;;16.90;11.60;;;15.60;99.90;;;;;;5116353;27;20424;-80
2021/07/24 03:56:20;;;;;;;18.05;12.02;;;15.70;99.90;;;;;;5116482;27;20406;-81
2021/07/24 03:58:47;;;;;;;15.10;12.07;;;15.80;99.90;;;;;;5134956;27;20380;-80
2021/07/24 04:01:13;;;;;;;14.32;11.77;;;15.80;99.90;;;;;;5116196;27;20035;-80
2021/07/24 04:03:39;;;;;;;16.17;13.32;;;15.80;99.90;;;;;;5134526;27;20476;-80
2021/07/24 04:06:13;;;;;;;15.57;12.60;;;15.90;99.90;;;;;;5116049;27;20022;-80
2021/07/24 04:08:39;;;;;;;15.32;10.85;;;16.00;99.90;;;;;;5116347;27;20511;-80
2021/07/24 04:11:05;;;;;;;14.35;10.93;;;16.00;99.90;;;;;;5116180;27;20498;-80
2021/07/24 04:13:33;;;;;;;17.35;10.35;;;16.10;99.90;;;;;;5134393;27;20023;-80
2021/07/24 04:16:00;;;;;;;16.38;11.48;;;16.20;99.90;;;;;;5134452;27;20440;-80
2021/07/24 04:18:29;;;;;;;15.85;11.07;;;16.30;99.90;;;;;;5134322;27;20042;-80
2021/07/24 04:20:55;;;;;;;16.75;11.52;;;16.50;99.90;;;;;;5115946;27;20031;-80
2021/07/24 04:23:20;;;;;;;14.95;11.25;;;16.60;99.90;;;;;;5133754;27;20026;-80
2021/07/24 04:25:46;;;;;;;14.07;10.45;;;16.70;99.90;;;;;;5115645;27;20025;-81
2021/07/24 04:28:12;;;;;;;15.65;10.60;;;16.80;99.90;;;;;;5134209;27;20113;-82
2021/07/24 04:30:37;;;;;;;18.60;11.30;;;16.90;99.90;;;;;;5115772;27;20020;-82
2021/07/24 04:33:03;;;;;;;15.40;10.30;;;17.10;99.90;;;;;;5134007;27;20223;-80
2021/07/24 04:35:29;;;;;;;16.30;11.40;;;17.30;99.90;;;;;;5115857;27;20473;-81
2021/07/24 04:37:54;;;;;;;13.77;9.95;;;17.40;99.90;;;;;;5115686;27;20027;-81
2021/07/24 04:40:20;;;;;;;14.35;10.48;;;17.60;99.90;;;;;;5115593;27;20468;-81
2021/07/24 04:42:46;;;;;;;13.23;9.88;;;17.60;99.90;;;;;;5115577;27;20027;-81
2021/07/24 04:45:12;;;;;;;15.70;10.25;;;17.70;99.90;;;;;;5115586;27;20026;-80
2021/07/24 04:47:37;;;;;;;13.77;9.65;;;17.70;99.90;;;;;;5115408;27;20019;-82
2021/07/24 04:50:04;;;;;;;11.35;9.27;;;17.80;99.90;;;;;;5115563;27;20011;-81
2021/07/24 04:52:29;;;;;;;13.77;10.77;;;18.00;99.90;;;;;;5133775;28;20469;-82
2021/07/24 04:54:58;;;;;;;14.55;10.95;;;18.10;99.90;;;;;;5115160;28;20035;-81
2021/07/24 04:57:24;;;;;;;14.43;9.50;;;18.20;99.90;;;;;;5094349;28;20445;-81
2021/07/24 04:59:51;;;;;;;15.25;10.27;;;18.20;99.90;;;;;;5094977;28;20030;-81
2021/07/24 05:02:18;;;;;;;12.27;9.27;;;18.40;99.90;;;;;;5113244;28;20419;-80
2021/07/24 05:04:48;;;;;;;13.40;8.95;;;18.40;99.90;;;;;;5113091;28;20024;-80
2021/07/24 05:07:18;;;;;;;11.05;8.57;;;18.50;99.90;;;;;;5094970;28;20024;-80
2021/07/24 05:09:44;;;;;;;14.45;9.38;;;18.60;99.40;;;;;;5094801;28;20024;-81
2021/07/24 05:12:10;;;;;;;13.57;9.77;;;18.60;98.50;;;;;;5113238;28;20028;-82
2021/07/24 05:14:36;;;;;;;12.23;9.15;;;18.70;98.70;;;;;;5113058;28;20381;-81
2021/07/24 05:17:12;;;;;;;12.23;8.70;;;18.90;96.90;;;;;;5113219;28;20031;-81
2021/07/24 05:19:40;;;;;;;13.68;9.23;;;19.10;94.80;;;;;;5094705;28;20011;-81
2021/07/24 05:22:10;;;;;;;12.30;9.65;;;19.30;96.80;;;;;;5094725;28;20071;-81
2021/07/24 05:24:37;;;;;;;12.77;10.10;;;19.40;93.50;;;;;;5126716;28;20024;-81
2021/07/24 05:27:03;;;;;;;13.73;9.85;;;19.40;94.10;;;;;;5133648;28;20042;-80
2021/07/24 05:29:29;;;;;;;14.38;10.43;;;19.40;93.10;;;;;;5133398;28;20020;-81
2021/07/24 05:31:55;;;;;;;14.68;10.73;;;19.40;93.10;;;;;;5115081;28;20126;-82
2021/07/24 05:34:22;;;;;;;14.32;10.50;;;19.40;94.00;;;;;;5115028;28;20072;-81
2021/07/24 05:36:47;;;;;;;15.55;10.48;;;19.40;94.90;;;;;;5115018;28;20451;-81
2021/07/24 05:39:13;;;;;;;15.23;9.93;;;19.40;94.70;;;;;;5115079;28;20114;-80
2021/07/24 05:53:03;;;;;;;14.38;11.20;;;19.40;94.30;;;;;;5066589;28;20455;-87
2021/07/24 05:55:28;;;;;;;17.15;10.52;;;20.00;91.90;;;;;;5105256;27;20026;-85
2021/07/24 05:57:54;;;;;;;13.60;9.68;;;20.20;92.00;;;;;;5172278;27;20071;-86
2021/07/24 06:00:20;;;;;;;13.52;9.93;;;20.40;89.70;;;;;;5096552;27;20027;-86
2021/07/24 06:02:45;;;;;;;12.88;9.10;;;20.50;87.60;;;;;;5066436;28;20485;-86
2021/07/24 06:05:11;;;;;;;10.63;8.98;;;20.70;87.30;;;;;;5065331;28;20025;-87
2021/07/24 06:07:36;;;;;;;13.38;9.25;;;20.70;87.70;;;;;;5066551;28;20096;-86
2021/07/24 06:10:02;;;;;;;12.23;9.13;;;20.80;88.60;;;;;;5065865;28;20078;-85
2021/07/24 06:12:28;;;;;;;13.35;8.70;;;20.80;88.30;;;;;;5064975;28;20484;-86
2021/07/24 06:14:53;;;;;;;13.57;9.93;;;20.80;86.20;;;;;;5066358;28;20104;-86
2021/07/24 06:17:19;;;;;;;10.70;8.85;;;20.80;85.30;;;;;;5062963;28;20069;-88
2021/07/24 06:19:45;;;;;;;12.27;10.15;;;20.90;87.20;;;;;;5067196;27;20024;-86
2021/07/24 06:22:10;;;;;;;12.98;9.02;;;20.90;85.40;;;;;;5062780;28;20378;-88
2021/07/24 06:24:36;;;;;;;12.85;9.20;;;20.90;86.10;;;;;;5083935;28;20080;-85
2021/07/24 06:27:02;;;;;;;12.00;9.10;;;21.10;85.90;;;;;;5069941;27;20105;-85
2021/07/24 06:29:27;;;;;;;12.25;8.82;;;21.20;87.00;;;;;;5052564;27;20028;-87
2021/07/24 06:31:53;;;;;;;14.10;9.50;;;21.40;85.50;;;;;;5055929;27;20037;-87
2021/07/24 06:34:18;;;;;;;10.25;8.18;;;21.50;83.70;;;;;;5085748;27;20075;-85
2021/07/24 06:36:44;;;;;;;10.50;8.52;;;21.70;83.20;;;;;;5079700;27;20032;-86
2021/07/24 06:39:10;;;;;;;14.93;8.77;;;21.80;80.60;;;;;;5053956;27;20418;-85
2021/07/24 06:41:39;;;;;;;10.45;8.30;;;21.80;81.20;;;;;;5126987;27;20558;-86
2021/07/24 06:44:04;;;;;;;10.25;8.13;;;22.10;80.80;;;;;;5062245;27;20021;-86
2021/07/24 06:46:30;;;;;;;11.45;8.68;;;22.40;79.10;;;;;;5062475;27;20204;-86
2021/07/24 06:48:56;;;;;;;10.10;8.45;;;22.50;76.80;;;;;;5061274;27;20035;-86
2021/07/24 06:51:21;;;;;;;11.50;8.50;;;22.80;75.50;;;;;;5051632;27;20045;-86
2021/07/24 06:53:47;;;;;;;13.00;8.43;;;22.80;76.70;;;;;;5030119;28;20030;-86
2021/07/24 06:56:13;;;;;;;10.63;7.60;;;22.80;77.10;;;;;;5026521;28;20038;-86
2021/07/24 06:58:38;;;;;;;11.32;8.00;;;22.70;75.20;;;;;;5037576;27;20068;-85
2021/07/24 07:01:07;;;;;;;12.63;7.68;;;22.50;77.10;;;;;;5034290;27;20035;-85
2021/07/24 07:03:34;;;;;;;12.23;7.90;;;22.70;78.00;;;;;;5036083;27;20017;-86
2021/07/24 07:06:00;;;;;;;10.80;7.75;;;22.70;78.10;;;;;;5037264;27;20062;-86
2021/07/24 07:08:25;;;;;;;8.52;6.15;;;22.70;75.20;;;;;;5033973;27;20021;-86
2021/07/24 07:10:51;;;;;;;11.18;7.53;;;22.80;75.70;;;;;;5036818;27;20029;-86
2021/07/24 07:13:18;;;;;;;8.50;6.95;;;22.90;72.70;;;;;;5036242;27;20093;-85
2021/07/24 07:15:44;;;;;;;13.38;6.53;;;22.90;73.40;;;;;;5039637;27;20032;-85
2021/07/24 07:18:09;;;;;;;8.10;6.38;;;23.00;71.50;;;;;;5037991;27;20490;-86
2021/07/24 07:20:35;;;;;;;9.48;6.55;;;23.10;71.10;;;;;;5032748;27;20422;-80
2021/07/24 07:23:01;;;;;;;9.43;6.82;;;23.10;71.40;;;;;;5039824;28;20389;-78
2021/07/24 07:25:26;;;;;;;7.45;6.22;;;23.20;70.10;;;;;;5030243;28;20030;-78
2021/07/24 07:27:52;;;;;;;8.25;7.05;;;23.40;71.90;;;;;;5038175;27;20040;-79
2021/07/24 07:30:18;;;;;;;12.20;7.88;;;23.50;72.40;;;;;;5037388;27;20458;-79
2021/07/24 07:32:44;;;;;;;13.50;7.18;;;23.50;71.60;;;;;;5042802;27;20520;-80
2021/07/24 07:35:10;;;;;;;11.07;7.60;;;23.30;69.60;;;;;;5082274;27;20013;-79
2021/07/24 07:37:46;;;;;;;11.07;7.10;;;23.30;71.40;;;;;;5052572;27;20037;-80
2021/07/24 07:40:12;;;;;;;11.85;6.63;;;23.60;69.00;;;;;;5045313;28;20082;-78
2021/07/24 07:42:38;;;;;;;8.30;6.70;;;23.70;68.30;;;;;;5046771;27;20056;-80
2021/07/24 07:45:04;;;;;;;7.20;6.22;;;23.60;65.60;;;;;;5049994;28;20025;-79
2021/07/24 07:47:29;;;;;;;9.15;6.15;;;23.50;64.20;;;;;;5050346;28;21069;-79
2021/07/24 07:49:56;;;;;;;8.20;5.88;;;23.70;66.50;;;;;;5049561;28;20033;-79
2021/07/24 07:52:21;;;;;;;7.38;6.13;;;23.80;66.40;;;;;;5050288;28;20401;-80
2021/07/24 07:54:48;;;;;;;9.13;6.03;;;24.10;64.40;;;;;;5049187;28;20033;-80
2021/07/24 07:57:14;;;;;;;9.45;6.00;;;24.30;62.60;;;;;;5048672;28;20194;-81
2021/07/24 07:59:39;;;;;;;8.80;6.20;;;24.60;64.00;;;;;;5049772;28;20104;-80
2021/07/24 08:02:05;;;;;;;7.55;6.22;;;24.70;60.90;;;;;;5048813;28;20056;-84
2021/07/24 08:04:32;;;;;;;5.28;4.78;;;24.80;59.00;;;;;;5047962;27;20094;-79
2021/07/24 08:06:58;;;;;;;8.27;5.03;;;25.10;59.80;;;;;;5048198;27;20128;-80
2021/07/24 08:09:23;;;;;;;7.25;5.47;;;25.10;59.00;;;;;;5049632;27;20509;-79
2021/07/24 08:11:50;;;;;;;7.35;5.68;;;25.30;57.80;;;;;;5047174;27;20037;-84
2021/07/24 08:14:15;;;;;;;7.15;5.32;;;25.30;57.20;;;;;;5049419;27;20173;-83
2021/07/24 08:16:44;;;;;;;7.63;5.47;;;25.30;56.80;;;;;;5049059;27;20112;-82
2021/07/24 08:19:10;;;;;;;8.48;5.63;;;25.30;55.90;;;;;;5048479;27;20028;-80
2021/07/24 08:21:35;;;;;;;6.57;5.28;;;25.30;56.80;;;;;;5045532;27;20485;-80
2021/07/24 08:24:01;;;;;;;8.13;6.55;;;25.00;56.90;;;;;;5030952;28;20033;-81
2021/07/24 08:26:27;;;;;;;6.28;5.47;;;25.00;57.50;;;;;;5027938;28;20045;-81
2021/07/24 08:28:52;;;;;;;8.45;5.68;;;25.00;57.00;;;;;;5028243;28;20097;-82
2021/07/24 08:31:18;;;;;;;7.05;5.63;;;25.20;57.90;;;;;;5028108;28;20386;-82
2021/07/24 08:33:44;;;;;;;6.28;5.63;;;25.30;56.70;;;;;;5042567;27;20025;-81
2021/07/24 08:36:10;;;;;;;7.53;5.50;;;25.40;55.00;;;;;;5049368;27;20028;-78
2021/07/24 08:38:35;;;;;;;7.13;5.22;;;25.60;54.60;;;;;;5048551;27;20039;-82
2021/07/24 08:41:02;;;;;;;6.03;5.30;;;25.80;54.40;;;;;;5048908;27;20411;-80
2021/07/24 08:43:28;;;;;;;6.63;5.35;;;25.80;53.40;;;;;;5046179;27;20037;-79
2021/07/24 08:45:56;;;;;;;12.00;5.57;;;26.00;53.90;;;;;;5037088;27;20038;-80
2021/07/24 08:48:22;;;;;;;9.00;6.35;;;26.00;54.30;;;;;;5058135;28;20032;-80
2021/07/24 08:50:49;;;;;;;6.70;5.68;;;26.10;54.10;;;;;;5067038;27;20024;-82
2021/07/24 08:53:20;;;;;;;11.05;6.05;;;26.10;53.70;;;;;;5067993;28;20447;-81
2021/07/24 08:55:45;;;;;;;6.22;5.25;;;25.90;53.80;;;;;;5057332;27;20025;-78
2021/07/24 08:58:18;;;;;;;6.22;5.32;;;25.90;52.80;;;;;;5034451;28;20077;-78
2021/07/24 09:00:44;;;;;;;20.25;5.82;;;26.10;53.80;;;;;;5037707;27;20051;-82
2021/07/24 09:03:17;;;;;;;8.52;6.47;;;26.00;53.10;;;;;;5050860;27;20147;-80
2021/07/24 09:05:48;;;;;;;10.85;5.30;;;25.90;52.50;;;;;;5029301;27;20347;-80
2021/07/24 09:08:13;;;;;;;6.45;5.85;;;25.80;53.00;;;;;;5041170;27;20033;-81
2021/07/24 09:10:41;;;;;;;9.75;6.65;;;25.50;54.10;;;;;;5040349;27;20478;-80
2021/07/24 09:13:06;;;;;;;6.40;5.25;;;25.40;55.00;;;;;;5066394;28;20031;-78
2021/07/24 09:15:32;;;;;;;8.73;5.40;;;25.00;57.00;;;;;;5049782;28;20021;-78
2021/07/24 09:17:57;;;;;;;6.50;5.80;;;25.00;57.40;;;;;;5048723;28;20029;-78
2021/07/24 09:20:26;;;;;;;10.77;6.03;;;24.90;57.10;;;;;;5048492;28;20028;-80
2021/07/24 09:22:53;;;;;;;9.63;5.93;;;24.80;56.00;;;;;;5047929;28;20052;-78
2021/07/24 09:25:21;;;;;;;9.30;6.13;;;24.70;56.60;;;;;;5050010;28;20025;-78
2021/07/24 09:27:49;;;;;;;9.18;6.32;;;24.60;57.20;;;;;;5048520;28;20021;-78
2021/07/24 09:30:35;;;;;;;10.05;5.78;;;25.10;58.10;;;;;;5049812;28;20025;-78
2021/07/24 09:33:06;;;;;;;7.68;5.82;;;25.30;55.60;;;;;;5049632;28;20041;-77
2021/07/24 09:35:35;;;;;;;6.45;5.53;;;25.50;55.30;;;;;;5048679;28;20029;-83
2021/07/24 09:38:01;;;;;;;8.68;6.18;;;25.70;55.40;;;;;;5048422;28;20017;-84
2021/07/24 09:40:27;;;;;;;7.07;6.35;;;25.90;54.10;;;;;;5049962;28;20538;-84
2021/07/24 09:42:52;;;;;;;8.45;6.00;;;26.20;54.20;;;;;;5048205;28;20021;-84
2021/07/24 09:45:20;;;;;;;6.55;5.15;;;26.50;52.70;;;;;;5049739;28;20025;-83
2021/07/24 09:47:47;;;;;;;6.90;5.72;;;26.80;52.40;;;;;;5048372;28;20071;-84
2021/07/24 09:50:17;;;;;;;7.15;5.95;;;27.00;51.70;;;;;;5048306;27;20035;-81
2021/07/24 09:52:47;;;;;;;7.13;5.63;;;27.20;51.30;;;;;;5049029;28;20070;-81
2021/07/24 09:55:17;;;;;;;9.45;6.07;;;27.30;50.10;;;;;;5042710;27;20040;-82
2021/07/24 09:57:44;;;;;;;5.60;5.00;;;27.30;49.90;;;;;;5095977;27;20023;-83
2021/07/24 10:00:42;;;;;;;6.20;5.53;;;27.30;50.80;;;;;;5092292;27;20019;-84
2021/07/24 10:03:08;;;;;;;7.03;5.70;;;27.60;49.10;;;;;;5043113;27;20038;-84
2021/07/24 10:05:39;;;;;;;7.10;5.93;;;27.50;50.70;;;;;;5101935;27;20018;-84
2021/07/24 10:08:15;;;;;;;8.63;6.13;;;27.50;47.90;;;;;;5115832;27;20026;-83
2021/07/24 10:10:42;;;;;;;8.15;5.55;;;27.80;48.40;;;;;;5090402;27;20158;-83
2021/07/24 10:13:13;;;;;;;7.57;5.88;;;27.80;48.80;;;;;;5098767;27;20373;-83
2021/07/24 10:15:44;;;;;;;10.45;6.25;;;27.80;47.30;;;;;;5093733;27;20074;-85
2021/07/24 10:18:12;;;;;;;7.55;6.68;;;27.80;47.70;;;;;;5054441;27;20390;-86
2021/07/24 10:20:48;;;;;;;8.52;6.07;;;27.90;47.30;;;;;;5059408;27;20021;-84
2021/07/24 10:23:17;;;;;;;7.22;6.10;;;28.10;46.80;;;;;;5065003;27;20487;-84
2021/07/24 10:26:02;;;;;;;6.63;5.93;;;28.00;47.90;;;;;;5068474;27;20028;-84
2021/07/24 10:28:36;;;;;;;8.23;5.72;;;28.10;47.50;;;;;;5040786;28;20293;-85
2021/07/24 10:31:12;;;;;;;7.93;5.60;;;27.90;45.40;;;;;;5077798;27;20029;-83
2021/07/24 10:33:38;;;;;;;9.27;6.47;;;27.60;46.90;;;;;;5079772;27;20018;-85
2021/07/24 10:36:13;;;;;;;7.15;5.80;;;27.40;47.60;;;;;;5077221;27;20032;-86
2021/07/24 10:38:57;;;;;;;9.80;6.53;;;27.10;48.50;;;;;;5064025;27;20025;-85
2021/07/24 10:41:22;;;;;;;7.03;5.70;;;27.20;48.10;;;;;;5067209;27;20014;-85
2021/07/24 10:44:04;;;;;;;9.88;7.10;;;27.20;47.20;;;;;;5041648;27;20033;-82
2021/07/24 10:46:45;;;;;;;;;;;26.90;46.90;;;;;;5051099;27;20035;-83
2021/07/24 10:49:23;;;;;;;7.95;6.25;;;27.20;47.40;;;;;;5119833;27;19903;-85
2021/07/24 10:51:55;;;;;;;7.53;6.72;;;27.60;45.70;;;;;;5045773;28;20051;-83
2021/07/24 10:54:22;;;;;;;10.02;6.28;;;27.80;46.60;;;;;;5048638;28;20050;-85
2021/07/24 10:56:48;;;;;;;11.57;6.28;;;27.80;47.80;;;;;;5048958;28;20044;-85
2021/07/24 10:59:13;;;;;;;8.00;6.95;;;27.60;48.20;;;;;;5049971;28;20028;-85
2021/07/24 11:01:58;;;;;;;10.20;7.35;;;27.30;48.40;;;;;;5061998;27;20037;-86
2021/07/24 11:04:41;;;;;;;7.13;6.50;;;27.20;48.50;;;;;;5096162;27;20024;-83
2021/07/24 11:07:12;;;;;;;7.30;6.60;;;27.30;47.20;;;;;;5052338;27;20044;-84
2021/07/24 11:09:39;;;;;;;8.55;6.68;;;27.60;47.40;;;;;;5066407;27;20503;-84
2021/07/24 11:12:18;;;;;;;7.68;6.03;;;27.60;47.00;;;;;;5061526;27;20049;-84
2021/07/24 11:14:51;;;;;;;7.28;6.60;;;27.90;48.10;;;;;;5112828;27;20022;-83
2021/07/24 11:17:17;;;;;;;7.07;6.38;;;28.40;46.10;;;;;;5056009;27;20037;-84
2021/07/24 11:19:49;;;;;;;9.27;6.38;;;28.60;44.60;;;;;;5118130;27;20019;-84
2021/07/24 11:22:22;;;;;;;7.60;6.40;;;28.70;44.40;;;;;;5047253;27;20052;-83
2021/07/24 11:24:51;;;;;;;7.97;6.22;;;28.60;44.30;;;;;;5115816;27;20050;-83
2021/07/24 11:27:34;;;;;;;7.18;5.95;;;28.50;43.40;;;;;;5047260;28;20037;-84
2021/07/24 11:30:02;;;;;;;7.40;6.70;;;28.40;42.70;;;;;;5093497;27;20040;-84
2021/07/24 11:32:32;;;;;;;8.27;6.18;;;28.20;42.60;;;;;;5047642;28;20041;-84
2021/07/24 11:35:05;;;;;;;8.32;6.63;;;27.90;41.90;;;;;;5044170;28;20025;-83
2021/07/24 11:37:39;;;;;;;8.85;7.75;;;28.20;42.90;;;;;;5063402;27;20070;-83
2021/07/24 11:40:07;;;;;;;6.72;5.93;;;28.40;43.10;;;;;;5063287;27;20482;-82
2021/07/24 11:42:33;;;;;;;7.43;6.68;;;28.70;43.60;;;;;;5053219;27;20037;-82
2021/07/24 11:44:59;;;;;;;9.45;7.20;;;28.90;42.90;;;;;;5049540;28;20037;-82
2021/07/24 11:47:25;;;;;;;7.38;6.57;;;29.20;43.80;;;;;;5048520;28;20455;-84
2021/07/24 11:49:50;;;;;;;8.88;6.88;;;29.20;42.20;;;;;;5117094;27;20027;-82
2021/07/24 11:52:22;;;;;;;9.73;6.75;;;29.50;41.90;;;;;;5047086;28;20501;-82
2021/07/24 11:54:51;;;;;;;8.10;6.93;;;29.40;41.00;;;;;;5074871;27;20098;-83
2021/07/24 11:57:27;;;;;;;8.55;6.97;;;28.90;38.80;;;;;;5117644;27;20035;-84
2021/07/24 11:59:54;;;;;;;6.55;5.97;;;28.80;40.80;;;;;;5116351;27;20057;-83
2021/07/24 12:02:20;;;;;;;7.65;5.80;;;29.10;41.50;;;;;;5045313;27;20045;-83
2021/07/24 12:04:49;;;;;;;9.38;7.25;;;29.20;41.30;;;;;;5050028;27;20043;-83
2021/07/24 12:07:17;;;;;;;7.88;7.10;;;29.40;41.50;;;;;;5116984;27;20076;-83
2021/07/24 12:09:43;;;;;;;8.68;6.10;;;29.60;41.80;;;;;;5046963;28;20028;-82
2021/07/24 12:12:09;;;;;;;7.53;6.68;;;29.50;40.60;;;;;;5047184;28;20045;-83
2021/07/24 12:14:35;;;;;;;8.95;6.88;;;29.20;40.00;;;;;;5046519;28;20027;-83
2021/07/24 12:17:08;;;;;;;10.98;7.22;;;29.10;39.50;;;;;;5098990;27;20086;-82
2021/07/24 12:19:42;;;;;;;8.18;6.55;;;29.20;39.70;;;;;;5046731;28;20017;-82
2021/07/24 12:22:34;;;;;;;8.30;6.75;;;29.30;39.70;;;;;;5045803;28;20097;-83
2021/07/24 12:25:15;;;;;;;9.30;6.97;;;29.50;40.60;;;;;;5045511;28;20106;-85
2021/07/24 12:27:48;;;;;;;7.55;6.70;;;29.50;39.20;;;;;;5047386;28;20070;-84
2021/07/24 12:30:27;;;;;;;7.18;6.00;;;29.30;38.40;;;;;;5057049;27;20033;-84
2021/07/24 12:32:52;;;;;;;9.68;7.47;;;29.10;39.20;;;;;;5045157;28;20132;-85
2021/07/24 12:35:21;;;;;;;8.68;7.32;;;28.80;40.50;;;;;;5046685;28;20541;-83
2021/07/24 12:37:47;;;;;;;7.38;6.68;;;28.70;41.50;;;;;;5046461;28;20037;-87
2021/07/24 12:40:17;;;;;;;8.38;6.95;;;29.00;41.70;;;;;;5048492;28;20025;-84
2021/07/24 12:42:43;;;;;;;7.43;6.43;;;29.10;39.40;;;;;;5047346;28;20478;-83
2021/07/24 12:45:31;;;;;;;6.90;5.82;;;29.30;39.40;;;;;;5072332;27;20013;-83
2021/07/24 12:48:14;;;;;;;9.80;6.70;;;29.30;38.50;;;;;;5049173;28;20037;-85
2021/07/24 12:50:40;;;;;;;7.22;6.25;;;29.50;39.30;;;;;;5048551;28;20078;-86
2021/07/24 12:53:06;;;;;;;7.80;7.00;;;29.60;38.40;;;;;;5050734;27;20032;-86
2021/07/24 12:55:35;;;;;;;7.43;6.38;;;29.50;39.10;;;;;;5099440;27;20033;-84